Time;durP1;ratioP1;P1;durP2;ratioP2;P2;SDS_P1;SDS_P2;PMS_P1;PMS_P2;Temp;Humidity;BMP_temperature;BMP_pressure;BME280_temperature;BME280_humidity;BME280_pressure;Samples;Min_cycle;Max_cycle;Signal;HPM_P1;HPM_P2
2022/11/07 00:00:37;;;;;;;;;;;;;;;13.61;90.23;99872.31;7362706;19;19918;-60
2022/11/07 00:03:04;;;;;;;;;;;;;;;13.60;89.68;99876.00;7363720;19;19922;-61
2022/11/07 00:05:31;;;;;;;;;;;;;;;13.63;89.89;99877.41;7365468;19;19923;-60
2022/11/07 00:07:58;;;;;;;;;;;;;;;13.63;90.41;99870.28;7361914;19;19914;-61
2022/11/07 00:10:26;;;;;;;;;;;;;;;13.62;90.03;99876.59;7365962;19;20526;-60
2022/11/07 00:12:54;;;;;;;;;;;;;;;13.59;90.01;99881.47;7361992;19;19922;-61
2022/11/07 00:15:23;;;;;;;;;;;;;;;13.54;89.44;99883.88;7360844;19;19915;-61
2022/11/07 00:17:50;;;;;;;;;;;;;;;13.52;89.58;99885.88;7364452;19;19953;-60
2022/11/07 00:20:17;;;;;;;;;;;;;;;13.52;89.71;99886.69;7364204;19;19922;-60
2022/11/07 00:22:45;;;;;;;;;;;;;;;13.52;89.63;99892.00;7363498;19;19926;-60
2022/11/07 00:25:12;;;;;;;;;;;;;;;13.53;89.82;99893.63;7365729;19;20260;-60
2022/11/07 00:27:39;;;;;;;;;;;;;;;13.56;90.28;99895.88;7361407;19;20327;-61
2022/11/07 00:30:07;;;;;;;;;;;;;;;13.60;90.60;99902.41;7360834;19;19923;-61
2022/11/07 00:32:35;;;;;;;;;;;;;;;13.61;89.68;99904.03;7365148;19;19936;-61
2022/11/07 00:35:02;;;;;;;;;;;;;;;13.61;89.83;99898.75;7362008;19;19934;-61
2022/11/07 00:37:29;;;;;;;;;;;;;;;13.60;89.55;99899.78;7362031;19;19998;-60
2022/11/07 00:39:56;;;;;;;;;;;;;;;13.58;89.49;99896.50;7361151;19;19930;-60
2022/11/07 00:42:24;;;;;;;;;;;;;;;13.61;90.59;99908.53;7361579;19;20065;-63
2022/11/07 00:44:52;;;;;;;;;;;;;;;13.61;90.56;99901.38;7363103;19;19947;-60
2022/11/07 00:47:20;;;;;;;;;;;;;;;13.63;90.18;99901.19;7362484;19;19922;-61
2022/11/07 00:49:47;;;;;;;;;;;;;;;13.60;89.61;99906.88;7364772;19;19946;-62
2022/11/07 00:52:14;;;;;;;;;;;;;;;13.56;89.27;99905.66;7362791;19;20520;-60
2022/11/07 00:54:41;;;;;;;;;;;;;;;13.56;89.91;99916.22;7364569;19;19919;-63
2022/11/07 00:57:08;;;;;;;;;;;;;;;13.57;90.44;99913.38;7360092;19;19915;-61
2022/11/07 00:59:37;;;;;;;;;;;;;;;13.60;90.89;99909.53;7361195;19;20005;-60
2022/11/07 01:02:04;;;;;;;;;;;;;;;13.60;90.49;99906.88;7362841;19;19930;-60
2022/11/07 01:07:08;;;;;;;;;;;;;;;13.59;90.50;99906.06;7361750;19;19922;-60
2022/11/07 01:09:36;;;;;;;;;;;;;;;13.55;90.30;99901.38;7362520;19;19949;-59
2022/11/07 01:12:04;;;;;;;;;;;;;;;13.57;90.78;99912.53;7360620;19;19926;-61
2022/11/07 01:14:33;;;;;;;;;;;;;;;13.59;91.24;99915.81;7356657;19;20441;-61
2022/11/07 01:17:00;;;;;;;;;;;;;;;13.58;90.72;99917.66;7362969;19;19940;-61
2022/11/07 01:19:28;;;;;;;;;;;;;;;13.59;90.63;99915.81;7357339;19;19925;-62
2022/11/07 01:21:56;;;;;;;;;;;;;;;13.59;90.85;99921.09;7362432;19;19965;-61
2022/11/07 01:24:23;;;;;;;;;;;;;;;13.60;90.71;99918.28;7360698;19;20338;-61
2022/11/07 01:26:50;;;;;;;;;;;;;;;13.62;90.76;99918.88;7358715;19;19982;-63
2022/11/07 01:29:18;;;;;;;;;;;;;;;13.65;91.25;99921.16;7359692;19;19927;-62
2022/11/07 01:31:46;;;;;;;;;;;;;;;13.70;91.39;99912.63;7360933;19;19918;-61
2022/11/07 01:34:15;;;;;;;;;;;;;;;13.78;92.56;99914.28;7359580;19;19919;-60
2022/11/07 01:36:43;;;;;;;;;;;;;;;13.80;92.39;99913.09;7355136;19;19951;-61
2022/11/07 01:39:10;;;;;;;;;;;;;;;13.79;92.08;99916.75;7358499;19;19937;-61
2022/11/07 01:41:37;;;;;;;;;;;;;;;13.78;91.98;99909.81;7356744;19;20459;-61
2022/11/07 01:44:05;;;;;;;;;;;;;;;13.79;92.48;99908.81;7356576;19;20585;-61
2022/11/07 01:46:35;;;;;;;;;;;;;;;13.84;93.00;99910.88;7354410;19;19994;-61
2022/11/07 01:49:12;;;;;;;;;;;;;;;13.85;92.85;99912.50;7357787;19;19930;-61
2022/11/07 01:51:42;;;;;;;;;;;;;;;13.89;93.32;99909.25;7358201;19;19922;-64
2022/11/07 01:54:12;;;;;;;;;;;;;;;13.91;92.84;99907.25;7358763;19;20084;-58
2022/11/07 01:56:40;;;;;;;;;;;;;;;13.93;92.99;99913.13;7355486;19;19972;-61
2022/11/07 01:59:10;;;;;;;;;;;;;;;13.95;93.29;99911.13;7356225;19;19986;-61
2022/11/07 02:01:37;;;;;;;;;;;;;;;13.95;92.50;99919.06;7360498;19;19926;-61
2022/11/07 02:04:05;;;;;;;;;;;;;;;13.95;92.20;99920.88;7360689;19;20161;-61
2022/11/07 02:06:42;;;;;;;;;;;;;;;13.92;91.72;99915.97;7360137;19;19923;-60
2022/11/07 02:09:09;;;;;;;;;;;;;;;13.90;92.02;99912.72;7361298;19;19930;-61
2022/11/07 02:11:37;;;;;;;;;;;;;;;13.90;92.13;99912.72;7359406;19;19925;-62
2022/11/07 02:14:04;;;;;;;;;;;;;;;13.91;92.28;99914.38;7357779;19;19933;-62
2022/11/07 02:16:34;;;;;;;;;;;;;;;13.90;92.11;99916.19;7358637;19;19976;-61
2022/11/07 02:19:05;;;;;;;;;;;;;;;13.91;92.35;99912.53;7358710;19;20275;-63
2022/11/07 02:21:33;;;;;;;;;;;;;;;13.87;92.22;99927.16;7358719;19;20327;-61
2022/11/07 02:24:07;;;;;;;;;;;;;;;13.88;93.14;99934.06;7361189;19;19944;-60
2022/11/07 02:26:36;;;;;;;;;;;;;;;13.90;93.35;99941.81;7358599;19;19918;-61
2022/11/07 02:29:06;;;;;;;;;;;;;;;13.89;93.03;99933.06;7354675;19;20589;-59
2022/11/07 02:31:33;;;;;;;;;;;;;;;13.89;92.85;99938.34;7357455;19;19922;-62
2022/11/07 02:34:00;;;;;;;;;;;;;;;13.90;93.21;99932.06;7359891;19;19954;-61
2022/11/07 02:36:27;;;;;;;;;;;;;;;13.86;93.46;99933.47;7360004;19;19942;-60
2022/11/07 02:38:57;;;;;;;;;;;;;;;13.87;93.43;99939.53;7358431;19;19931;-62
2022/11/07 02:41:27;;;;;;;;;;;;;;;13.90;93.55;99939.19;7357773;19;19965;-61
2022/11/07 02:44:00;;;;;;;;;;;;;;;13.91;93.35;99936.34;7357398;19;19923;-62
2022/11/07 02:46:28;;;;;;;;;;;;;;;13.91;93.22;99939.00;7358492;19;20510;-58
2022/11/07 02:48:57;;;;;;;;;;;;;;;13.93;93.46;99931.66;7356686;19;19926;-60
2022/11/07 02:51:24;;;;;;;;;;;;;;;13.95;94.05;99942.88;7358205;19;19990;-62
2022/11/07 02:53:52;;;;;;;;;;;;;;;13.98;93.83;99950.41;7360790;19;19923;-60
2022/11/07 02:56:20;;;;;;;;;;;;;;;14.00;93.69;99951.03;7357076;19;19922;-61
2022/11/07 02:58:48;;;;;;;;;;;;;;;14.01;93.35;99938.63;7356100;19;19922;-62
2022/11/07 03:01:15;;;;;;;;;;;;;;;14.03;93.36;99934.75;7356265;19;19990;-61
2022/11/07 03:03:43;;;;;;;;;;;;;;;14.04;92.98;99931.09;7364934;19;20252;-61
2022/11/07 03:06:12;;;;;;;;;;;;;;;14.07;93.25;99930.69;7364502;19;19919;-61
2022/11/07 03:08:39;;;;;;;;;;;;;;;14.09;93.20;99927.84;7365493;19;19923;-61
2022/11/07 03:11:06;;;;;;;;;;;;;;;14.09;92.82;99935.78;7367646;19;19927;-61
2022/11/07 03:13:35;;;;;;;;;;;;;;;14.11;92.70;99934.59;7363982;19;19922;-60
2022/11/07 03:16:06;;;;;;;;;;;;;;;14.13;93.25;99932.56;7362969;19;19995;-61
2022/11/07 03:18:34;;;;;;;;;;;;;;;14.14;92.92;99936.00;7369162;19;20673;-59
2022/11/07 03:21:02;;;;;;;;;;;;;;;14.13;92.67;99923.78;7365093;19;20386;-59
2022/11/07 03:23:30;;;;;;;;;;;;;;;14.18;92.97;99923.19;7367392;19;19929;-61
2022/11/07 03:25:58;;;;;;;;;;;;;;;14.17;92.56;99937.47;7361620;19;20208;-60
2022/11/07 03:28:26;;;;;;;;;;;;;;;14.18;92.44;99933.78;7362480;19;21607;-61
2022/11/07 03:30:53;;;;;;;;;;;;;;;14.21;93.11;99938.69;7364084;19;19918;-61
2022/11/07 03:33:21;;;;;;;;;;;;;;;14.21;93.25;99931.56;7366226;19;19922;-61
2022/11/07 03:35:48;;;;;;;;;;;;;;;14.22;92.70;99937.69;7362972;19;19957;-60
2022/11/07 03:38:15;;;;;;;;;;;;;;;14.18;92.23;99944.38;7365453;19;19918;-61
2022/11/07 03:40:44;;;;;;;;;;;;;;;14.16;92.36;99949.88;7367482;19;19923;-61
2022/11/07 03:43:11;;;;;;;;;;;;;;;14.20;92.81;99952.94;7364079;19;19918;-61
2022/11/07 03:45:39;;;;;;;;;;;;;;;14.18;92.28;99947.84;7365082;19;19922;-61
2022/11/07 03:48:06;;;;;;;;;;;;;;;14.18;92.51;99945.19;7362057;19;20005;-61
2022/11/07 03:50:34;;;;;;;;;;;;;;;14.20;92.44;99947.63;7363205;19;19945;-61
2022/11/07 03:53:02;;;;;;;;;;;;;;;14.17;91.87;99945.41;7365728;19;21790;-61
2022/11/07 03:55:30;;;;;;;;;;;;;;;14.19;92.18;99932.78;7364961;19;19939;-61
2022/11/07 03:57:58;;;;;;;;;;;;;;;14.21;92.36;99952.75;7361155;19;19926;-61
2022/11/07 04:00:25;;;;;;;;;;;;;;;14.19;91.98;99954.75;7362643;19;19927;-61
2022/11/07 04:02:52;;;;;;;;;;;;;;;14.19;92.26;99943.34;7364871;19;19931;-60
2022/11/07 04:05:20;;;;;;;;;;;;;;;14.19;92.57;99944.19;7364089;19;19926;-62
2022/11/07 04:07:47;;;;;;;;;;;;;;;14.19;92.18;99948.66;7364246;19;21714;-60
2022/11/07 04:10:15;;;;;;;;;;;;;;;14.15;91.61;99942.94;7365529;19;19942;-61
2022/11/07 04:18:01;;;;;;;;;;;;;;;14.18;92.46;99941.72;7362610;19;20611;-61
2022/11/07 04:20:30;;;;;;;;;;;;;;;14.18;92.19;99934.59;7363429;19;19914;-63
2022/11/07 04:22:58;;;;;;;;;;;;;;;14.22;92.92;99941.13;7364700;19;20020;-60
2022/11/07 04:28:03;;;;;;;;;;;;;;;14.23;92.55;99934.81;7363060;19;19939;-62
2022/11/07 04:30:31;;;;;;;;;;;;;;;14.25;92.78;99937.28;7363300;19;19919;-60
2022/11/07 04:32:59;;;;;;;;;;;;;;;14.25;92.91;99934.63;7356300;19;19915;-62
2022/11/07 04:35:27;;;;;;;;;;;;;;;14.29;93.33;99939.31;7361358;19;19923;-60
2022/11/07 04:37:55;;;;;;;;;;;;;;;14.33;93.82;99937.91;7364720;19;19943;-61
2022/11/07 04:40:24;;;;;;;;;;;;;;;14.33;93.44;99939.72;7363043;19;19943;-61
2022/11/07 04:42:52;;;;;;;;;;;;;;;14.32;93.24;99938.94;7362126;19;20336;-60
2022/11/07 04:45:21;;;;;;;;;;;;;;;14.34;93.69;99936.91;7361872;19;19961;-61
2022/11/07 04:47:48;;;;;;;;;;;;;;;14.38;94.02;99942.63;7364473;19;19934;-59
2022/11/07 04:50:18;;;;;;;;;;;;;;;14.41;93.72;99944.91;7360430;19;19923;-61
2022/11/07 04:52:46;;;;;;;;;;;;;;;14.40;93.60;99944.06;7363837;19;20996;-60
2022/11/07 04:55:19;;;;;;;;;;;;;;;14.39;93.59;99939.78;7359861;19;19961;-62
2022/11/07 04:57:48;;;;;;;;;;;;;;;14.41;93.82;99944.91;7361238;19;20655;-60
2022/11/07 05:00:18;;;;;;;;;;;;;;;14.43;93.98;99940.19;7360898;19;19919;-62
2022/11/07 05:02:46;;;;;;;;;;;;;;;14.43;93.98;99948.13;7362451;19;19952;-61
2022/11/07 05:05:13;;;;;;;;;;;;;;;14.42;94.11;99947.34;7362084;19;19934;-61
2022/11/07 05:07:41;;;;;;;;;;;;;;;14.43;94.06;99948.97;7360450;19;19931;-61
2022/11/07 05:10:16;;;;;;;;;;;;;;;14.46;94.37;99961.00;7360335;19;19922;-61
2022/11/07 05:12:43;;;;;;;;;;;;;;;14.44;94.16;99955.91;7362066;19;21068;-60
2022/11/07 05:15:10;;;;;;;;;;;;;;;14.43;93.74;99950.78;7361712;19;19930;-62
2022/11/07 05:17:38;;;;;;;;;;;;;;;14.40;93.40;99957.31;7363434;19;19925;-61
2022/11/07 05:20:10;;;;;;;;;;;;;;;14.37;93.46;99952.44;7362957;19;20342;-61
2022/11/07 05:25:22;;;;;;;;;;;;;;;14.44;94.08;99950.59;7358329;19;19919;-59
2022/11/07 05:27:54;;;;;;;;;;;;;;;14.46;94.02;99950.41;7360545;19;19938;-61
2022/11/07 05:30:22;;;;;;;;;;;;;;;14.46;93.87;99956.53;7361169;19;20015;-60
2022/11/07 05:32:49;;;;;;;;;;;;;;;14.45;94.01;99954.88;7362902;19;19943;-61
2022/11/07 05:35:16;;;;;;;;;;;;;;;14.48;94.13;99953.66;7363065;19;20439;-61
2022/11/07 05:37:43;;;;;;;;;;;;;;;14.49;94.22;99945.53;7359410;19;19915;-61
2022/11/07 05:40:10;;;;;;;;;;;;;;;14.49;94.00;99942.06;7363110;19;20319;-62
2022/11/07 05:42:37;;;;;;;;;;;;;;;14.50;94.06;99938.41;7361275;19;19922;-60
2022/11/07 05:45:05;;;;;;;;;;;;;;;14.53;94.33;99943.28;7359206;19;19922;-59
2022/11/07 05:47:32;;;;;;;;;;;;;;;14.53;94.38;99946.75;7363446;19;20582;-61
2022/11/07 05:49:59;;;;;;;;;;;;;;;14.55;94.13;99949.19;7357967;19;20626;-62
2022/11/07 05:52:26;;;;;;;;;;;;;;;14.57;94.13;99949.00;7363334;19;20588;-61
2022/11/07 05:54:53;;;;;;;;;;;;;;;14.55;94.32;99946.56;7361519;19;20259;-61
2022/11/07 05:57:20;;;;;;;;;;;;;;;14.57;94.36;99951.66;7360602;19;20789;-60
2022/11/07 05:59:47;;;;;;;;;;;;;;;14.58;94.90;99940.06;7360415;19;19910;-62
2022/11/07 06:02:14;;;;;;;;;;;;;;;14.60;95.10;99938.00;7358864;19;19927;-61
2022/11/07 06:04:41;;;;;;;;;;;;;;;14.61;94.76;99934.34;7361125;19;19934;-62
2022/11/07 06:07:08;;;;;;;;;;;;;;;14.60;94.53;99938.81;7361470;19;19966;-61
2022/11/07 06:09:35;;;;;;;;;;;;;;;14.63;95.30;99933.13;7357760;19;19942;-62
2022/11/07 06:12:02;;;;;;;;;;;;;;;14.61;94.89;99940.47;7359802;19;20042;-61
2022/11/07 06:14:29;;;;;;;;;;;;;;;14.59;94.43;99937.19;7358044;19;20180;-60
2022/11/07 06:16:56;;;;;;;;;;;;;;;14.59;94.71;99946.97;7362117;19;19930;-61
2022/11/07 06:19:23;;;;;;;;;;;;;;;14.55;94.39;99943.91;7361146;19;20328;-59
2022/11/07 06:21:50;;;;;;;;;;;;;;;14.55;94.92;99950.03;7360143;19;19966;-61
2022/11/07 06:24:18;;;;;;;;;;;;;;;14.55;94.98;99947.38;7360081;19;19918;-61
2022/11/07 06:26:45;;;;;;;;;;;;;;;14.56;94.54;99953.50;7358441;19;20261;-61
2022/11/07 06:29:12;;;;;;;;;;;;;;;14.53;94.90;99949.41;7355175;19;19918;-60
2022/11/07 06:31:39;;;;;;;;;;;;;;;14.56;95.55;99953.50;7359136;19;19926;-60
2022/11/07 06:34:06;;;;;;;;;;;;;;;14.58;95.19;99955.94;7359756;19;19918;-61
2022/11/07 06:36:33;;;;;;;;;;;;;;;14.57;95.07;99954.31;7357753;19;20394;-61
2022/11/07 06:39:00;;;;;;;;;;;;;;;14.60;96.14;99953.91;7361625;19;19941;-61
2022/11/07 06:41:27;;;;;;;;;;;;;;;14.60;95.87;99953.91;7360923;19;20347;-61
2022/11/07 06:43:54;;;;;;;;;;;;;;;14.60;95.64;99953.91;7359000;19;20230;-61
2022/11/07 06:46:22;;;;;;;;;;;;;;;14.57;95.59;99960.41;7360709;19;19914;-63
2022/11/07 06:48:49;;;;;;;;;;;;;;;14.57;95.68;99963.06;7358043;19;20347;-61
2022/11/07 06:51:16;;;;;;;;;;;;;;;14.58;95.60;99972.63;7361205;19;19922;-60
2022/11/07 06:53:43;;;;;;;;;;;;;;;14.58;95.42;99977.13;7360505;19;19950;-62
2022/11/07 06:56:12;;;;;;;;;;;;;;;14.57;95.30;99963.06;7361000;19;19922;-60
2022/11/07 06:58:39;;;;;;;;;;;;;;;14.57;95.45;99968.38;7356263;19;19918;-61
2022/11/07 07:01:08;;;;;;;;;;;;;;;14.59;95.43;99968.13;7358781;19;20418;-62
2022/11/07 07:03:35;;;;;;;;;;;;;;;14.57;95.21;99967.53;7360298;19;19943;-60
2022/11/07 07:06:03;;;;;;;;;;;;;;;14.57;95.38;99963.06;7361504;19;20546;-60
2022/11/07 07:08:31;;;;;;;;;;;;;;;14.58;95.31;99964.69;7358884;19;19923;-61
2022/11/07 07:11:03;;;;;;;;;;;;;;;14.59;95.33;99971.59;7359926;19;19948;-60
2022/11/07 07:13:30;;;;;;;;;;;;;;;14.62;95.44;99976.53;7355515;19;20508;-61
2022/11/07 07:15:57;;;;;;;;;;;;;;;14.63;95.68;99974.69;7354407;19;19922;-60
2022/11/07 07:18:25;;;;;;;;;;;;;;;14.63;95.49;99972.03;7356965;19;19919;-60
2022/11/07 07:20:54;;;;;;;;;;;;;;;14.63;95.42;99988.72;7361769;19;19926;-60
2022/11/07 07:23:21;;;;;;;;;;;;;;;14.62;95.55;99995.06;7359910;19;20332;-60
2022/11/07 07:25:48;;;;;;;;;;;;;;;14.65;95.89;99991.19;7359300;19;20313;-61
2022/11/07 07:28:15;;;;;;;;;;;;;;;14.69;95.72;100003.00;7358213;19;19926;-59
2022/11/07 07:30:42;;;;;;;;;;;;;;;14.71;95.66;100006.28;7358901;19;19918;-61
2022/11/07 07:33:17;;;;;;;;;;;;;;;14.70;95.51;100005.44;7359210;19;19922;-64
2022/11/07 07:35:45;;;;;;;;;;;;;;;14.71;96.11;100004.44;7358777;19;19929;-62
2022/11/07 07:38:15;;;;;;;;;;;;;;;14.74;95.85;100000.56;7358779;19;19922;-62
2022/11/07 07:40:47;;;;;;;;;;;;;;;14.75;95.70;99999.56;7357802;19;19994;-61
2022/11/07 07:43:14;;;;;;;;;;;;;;;14.75;95.75;100000.38;7357227;19;19931;-63
2022/11/07 07:45:42;;;;;;;;;;;;;;;14.84;97.26;100011.59;7356525;19;19929;-64
2022/11/07 07:48:09;;;;;;;;;;;;;;;14.92;98.91;100014.06;7356694;19;19953;-60
2022/11/07 07:50:36;;;;;;;;;;;;;;;14.97;98.25;100003.69;7364806;19;19926;-60
2022/11/07 07:53:03;;;;;;;;;;;;;;;14.99;97.32;100010.41;7363860;19;19918;-60
2022/11/07 07:55:35;;;;;;;;;;;;;;;15.01;97.04;100020.81;7364649;19;19923;-61
2022/11/07 07:58:02;;;;;;;;;;;;;;;15.01;96.35;100014.69;7363141;19;19923;-61
2022/11/07 08:00:29;;;;;;;;;;;;;;;15.01;96.27;100019.97;7365447;19;19979;-61
2022/11/07 08:03:05;;;;;;;;;;;;;;;15.03;96.22;100012.66;7365003;19;19927;-60
2022/11/07 08:05:32;;;;;;;;;;;;;;;15.06;95.98;100023.66;7362829;19;19921;-61
2022/11/07 08:07:59;;;;;;;;;;;;;;;15.06;95.62;100022.84;7364056;19;19926;-61
2022/11/07 08:10:26;;;;;;;;;;;;;;;15.05;95.46;100026.50;7362081;19;19926;-62
2022/11/07 08:13:07;;;;;;;;;;;;;;;15.08;95.78;100028.78;7360491;19;20458;-62
2022/11/07 08:15:34;;;;;;;;;;;;;;;15.09;95.94;100035.69;7360905;19;19929;-61
2022/11/07 08:18:02;;;;;;;;;;;;;;;15.09;95.72;100030.38;7367602;19;20563;-62
2022/11/07 08:20:29;;;;;;;;;;;;;;;15.07;95.50;100024.47;7366514;19;19930;-62
2022/11/07 08:23:05;;;;;;;;;;;;;;;15.09;95.75;100020.59;7365373;19;19947;-61
2022/11/07 08:25:38;;;;;;;;;;;;;;;15.13;95.60;100024.50;7363160;19;19915;-65
2022/11/07 08:28:07;;;;;;;;;;;;;;;15.16;95.73;100023.25;7363289;19;21195;-62
2022/11/07 08:30:34;;;;;;;;;;;;;;;15.18;95.55;100026.53;7362739;19;20015;-62
2022/11/07 08:33:02;;;;;;;;;;;;;;;15.19;95.48;100025.50;7364905;19;19933;-61
2022/11/07 08:35:30;;;;;;;;;;;;;;;15.23;95.66;100024.91;7361287;19;19935;-61
2022/11/07 08:37:57;;;;;;;;;;;;;;;15.25;95.53;100022.88;7361617;19;19921;-63
2022/11/07 08:40:24;;;;;;;;;;;;;;;15.28;95.57;100024.31;7360929;19;19929;-62
2022/11/07 08:42:57;;;;;;;;;;;;;;;15.28;95.30;100024.31;7359929;19;19927;-61
2022/11/07 08:45:24;;;;;;;;;;;;;;;15.31;95.06;100024.72;7362036;19;20302;-62
2022/11/07 08:47:55;;;;;;;;;;;;;;;15.35;95.25;100033.06;7362243;19;19923;-61
2022/11/07 08:50:22;;;;;;;;;;;;;;;15.37;95.29;100025.72;7364762;19;19926;-63
2022/11/07 08:52:49;;;;;;;;;;;;;;;15.40;95.52;100030.63;7361757;19;19922;-60
2022/11/07 08:55:16;;;;;;;;;;;;;;;15.41;95.68;100025.13;7363509;19;19935;-60
2022/11/07 08:57:43;;;;;;;;;;;;;;;15.42;95.46;100028.59;7363081;19;20319;-62
2022/11/07 09:00:11;;;;;;;;;;;;;;;15.42;95.13;100025.94;7358402;19;19951;-59
2022/11/07 09:02:38;;;;;;;;;;;;;;;15.40;95.29;100025.31;7364725;19;19930;-62
2022/11/07 09:05:43;;;;;;;;;;;;;;;15.45;95.80;100030.00;7362973;19;20481;-60
2022/11/07 09:08:22;;;;;;;;;;;;;;;15.49;96.14;100031.25;7359550;19;21595;-62
2022/11/07 09:10:49;;;;;;;;;;;;;;;15.52;96.53;100026.38;7359229;19;19946;-61
2022/11/07 09:13:16;;;;;;;;;;;;;;;15.56;96.68;100010.84;7359330;19;20614;-61
2022/11/07 09:15:44;;;;;;;;;;;;;;;15.55;96.48;100027.78;7357284;19;20332;-61
2022/11/07 09:18:17;;;;;;;;;;;;;;;15.57;96.83;100025.75;7362079;19;19923;-61
2022/11/07 09:20:45;;;;;;;;;;;;;;;15.59;97.06;100023.72;7362071;19;19918;-61
2022/11/07 09:23:14;;;;;;;;;;;;;;;15.61;96.98;100022.50;7361711;19;19974;-59
2022/11/07 09:25:41;;;;;;;;;;;;;;;15.64;96.98;100023.94;7361682;19;19938;-61
2022/11/07 09:28:08;;;;;;;;;;;;;;;15.65;97.01;100025.53;7361648;19;20472;-61
2022/11/07 09:30:36;;;;;;;;;;;;;;;15.68;97.04;100022.50;7356377;19;19922;-61
2022/11/07 09:33:03;;;;;;;;;;;;;;;15.68;96.57;100031.25;7362525;19;19922;-59
2022/11/07 09:36:13;;;;;;;;;;;;;;;15.68;96.46;100028.63;7357816;19;20581;-59
2022/11/07 09:39:00;;;;;;;;;;;;;;;15.71;96.85;100030.84;7352901;19;19922;-62
2022/11/07 09:51:12;;;;;;;;;;;;;;;15.76;96.83;100038.19;7371440;19;19922;-62
2022/11/07 09:53:43;;;;;;;;;;;;;;;15.78;96.92;100044.94;7349498;19;19917;-62
2022/11/07 09:56:11;;;;;;;;;;;;;;;15.79;96.78;100035.94;7381394;19;19922;-60
2022/11/07 09:58:42;;;;;;;;;;;;;;;15.79;96.54;100035.94;7377845;19;19974;-60
2022/11/07 10:01:14;;;;;;;;;;;;;;;15.82;96.34;100042.66;7360164;19;19930;-61
2022/11/07 10:03:42;;;;;;;;;;;;;;;15.85;96.63;100049.41;7357164;19;19926;-61
2022/11/07 10:06:31;;;;;;;;;;;;;;;15.87;96.65;100044.69;7358018;19;19922;-61
2022/11/07 10:09:16;;;;;;;;;;;;;;;15.88;96.17;100044.50;7357655;19;20298;-60
2022/11/07 10:11:43;;;;;;;;;;;;;;;15.89;96.55;100055.94;7357818;19;19953;-60
2022/11/07 10:14:13;;;;;;;;;;;;;;;15.90;97.25;100049.63;7358520;19;19925;-59
2022/11/07 10:16:55;;;;;;;;;;;;;;;15.93;97.58;100049.19;7357949;19;19940;-59
2022/11/07 10:19:29;;;;;;;;;;;;;;;15.93;97.24;100057.97;7361190;19;19956;-60
2022/11/07 10:22:03;;;;;;;;;;;;;;;15.94;97.40;100053.47;7344283;19;19926;-60
2022/11/07 10:24:31;;;;;;;;;;;;;;;15.97;97.88;100053.06;7353544;19;19926;-61
2022/11/07 10:27:00;;;;;;;;;;;;;;;15.99;98.19;100053.66;7356531;19;19923;-63
2022/11/07 10:29:30;;;;;;;;;;;;;;;15.98;97.67;100062.66;7356871;19;20368;-60
2022/11/07 10:32:08;;;;;;;;;;;;;;;15.99;97.51;100058.97;7358014;19;19918;-59
2022/11/07 10:34:37;;;;;;;;;;;;;;;16.02;97.75;100051.41;7359732;19;20556;-61
2022/11/07 10:37:03;;;;;;;;;;;;;;;16.04;97.70;100061.81;7357435;19;19922;-61
2022/11/07 10:39:30;;;;;;;;;;;;;;;16.02;97.66;100058.56;7356500;19;20534;-61
2022/11/07 10:42:01;;;;;;;;;;;;;;;16.01;97.91;100057.72;7357249;19;19925;-61
2022/11/07 10:44:28;;;;;;;;;;;;;;;16.03;98.20;100047.75;7358302;19;20360;-62
2022/11/07 10:46:55;;;;;;;;;;;;;;;16.06;98.08;100057.09;7357986;19;20507;-59
2022/11/07 10:49:23;;;;;;;;;;;;;;;16.08;98.42;100055.91;7357710;19;20570;-61
2022/11/07 10:52:04;;;;;;;;;;;;;;;16.12;98.28;100053.63;7358616;19;19929;-58
2022/11/07 10:54:31;;;;;;;;;;;;;;;16.11;98.17;100052.00;7358317;19;19926;-59
2022/11/07 10:57:24;;;;;;;;;;;;;;;16.10;98.23;100053.81;7353906;19;19923;-60
2022/11/07 10:59:51;;;;;;;;;;;;;;;16.12;98.09;100048.31;7355425;19;19929;-59
2022/11/07 11:02:20;;;;;;;;;;;;;;;16.11;98.10;100052.81;7358809;19;19918;-62
2022/11/07 11:04:52;;;;;;;;;;;;;;;16.08;98.51;100050.59;7359200;19;19948;-60
2022/11/07 11:07:20;;;;;;;;;;;;;;;16.09;98.57;100051.41;7357924;19;20335;-61
2022/11/07 11:09:55;;;;;;;;;;;;;;;16.05;98.31;100048.31;7355616;19;20437;-61
2022/11/07 11:12:25;;;;;;;;;;;;;;;16.06;98.83;100043.84;7356168;19;20023;-57
2022/11/07 11:15:09;;;;;;;;;;;;;;;16.07;98.98;100043.63;7351022;19;19951;-60
2022/11/07 11:17:36;;;;;;;;;;;;;;;16.09;98.85;100043.44;7357661;19;20415;-60
2022/11/07 11:20:03;;;;;;;;;;;;;;;16.06;98.96;100049.97;7357427;19;19958;-60
2022/11/07 11:22:38;;;;;;;;;;;;;;;16.06;98.88;100044.66;7356704;19;20022;-60
2022/11/07 11:25:16;;;;;;;;;;;;;;;16.05;98.94;100045.69;7358610;19;19967;-60
2022/11/07 11:27:44;;;;;;;;;;;;;;;16.05;99.39;100037.72;7362163;19;20834;-62
2022/11/07 11:30:14;;;;;;;;;;;;;;;16.08;99.07;100023.22;7358493;19;19922;-61
2022/11/07 11:32:44;;;;;;;;;;;;;;;16.09;98.78;100028.34;7362393;19;20596;-62
2022/11/07 11:35:16;;;;;;;;;;;;;;;16.09;98.53;100019.56;7361549;19;20645;-61
2022/11/07 11:37:46;;;;;;;;;;;;;;;16.10;98.55;100015.88;7362977;19;19923;-61
2022/11/07 11:40:18;;;;;;;;;;;;;;;16.15;98.48;100013.41;7363914;19;20271;-61
2022/11/07 11:42:48;;;;;;;;;;;;;;;16.17;98.28;100014.00;7364450;19;20345;-62
2022/11/07 11:45:22;;;;;;;;;;;;;;;16.16;98.14;100007.88;7362476;19;19939;-60
2022/11/07 11:47:54;;;;;;;;;;;;;;;16.15;98.08;100014.22;7366038;19;19919;-62
2022/11/07 11:50:26;;;;;;;;;;;;;;;16.19;98.33;100017.28;7362770;19;19963;-61
2022/11/07 11:52:53;;;;;;;;;;;;;;;16.22;98.20;100009.69;7364406;19;19948;-61
2022/11/07 11:55:22;;;;;;;;;;;;;;;16.21;97.39;100013.38;7364599;19;19922;-61
2022/11/07 11:57:56;;;;;;;;;;;;;;;16.20;97.23;100019.69;7364123;19;20255;-58
2022/11/07 12:00:23;;;;;;;;;;;;;;;16.20;97.29;100008.28;7363081;19;20300;-61
2022/11/07 12:02:53;;;;;;;;;;;;;;;16.23;97.58;100011.34;7365346;19;19947;-61
2022/11/07 12:05:28;;;;;;;;;;;;;;;16.22;97.56;100014.19;7365520;19;19933;-62
2022/11/07 12:08:13;;;;;;;;;;;;;;;16.22;97.33;100000.91;7366030;19;19926;-61
2022/11/07 12:10:45;;;;;;;;;;;;;;;16.21;97.08;100008.06;7361495;19;19975;-59
2022/11/07 12:13:16;;;;;;;;;;;;;;;16.18;97.32;100007.69;7358419;19;19919;-60
2022/11/07 12:15:44;;;;;;;;;;;;;;;16.18;97.47;100005.03;7364112;19;19915;-61
2022/11/07 12:18:31;;;;;;;;;;;;;;;16.18;97.24;100010.34;7355027;19;19918;-61
2022/11/07 12:21:11;;;;;;;;;;;;;;;16.16;97.65;100004.41;7356542;19;19949;-61
2022/11/07 12:23:38;;;;;;;;;;;;;;;16.15;97.51;100016.06;7363443;19;20528;-60
2022/11/07 12:26:20;;;;;;;;;;;;;;;16.17;97.98;100014.81;7352490;19;19926;-60
2022/11/07 12:29:01;;;;;;;;;;;;;;;16.17;98.35;100014.00;7345227;19;20900;-57
2022/11/07 12:31:49;;;;;;;;;;;;;;;16.20;98.75;100019.69;7353751;19;19963;-58
2022/11/07 12:34:15;;;;;;;;;;;;;;;16.20;98.77;100016.25;7357174;19;19931;-60
2022/11/07 12:36:42;;;;;;;;;;;;;;;16.17;98.90;100012.16;7358223;19;19952;-61
2022/11/07 12:39:26;;;;;;;;;;;;;;;16.19;99.40;100009.31;7361704;19;19964;-61
2022/11/07 12:41:57;;;;;;;;;;;;;;;16.19;99.63;100017.28;7360172;19;19926;-61
2022/11/07 12:44:33;;;;;;;;;;;;;;;16.18;100.00;100005.84;7360428;19;20318;-58
2022/11/07 12:47:05;;;;;;;;;;;;;;;16.19;100.00;100004.81;7362332;19;19919;-60
2022/11/07 12:49:37;;;;;;;;;;;;;;;16.22;100.00;100017.66;7363807;19;19922;-62
2022/11/07 12:52:04;;;;;;;;;;;;;;;16.22;100.00;100014.19;7363922;19;20298;-60
2022/11/07 12:54:49;;;;;;;;;;;;;;;16.15;100.00;100010.75;7363047;19;19954;-61
2022/11/07 12:57:45;;;;;;;;;;;;;;;16.12;100.00;100011.16;7362470;19;19943;-59
2022/11/07 13:00:19;;;;;;;;;;;;;;;16.15;100.00;100010.75;7358726;19;19938;-63
2022/11/07 13:03:09;;;;;;;;;;;;;;;16.14;100.00;100009.94;7361609;19;19922;-60
2022/11/07 13:05:48;;;;;;;;;;;;;;;16.12;100.00;100005.84;7359883;19;19926;-61
2022/11/07 13:08:33;;;;;;;;;;;;;;;16.14;100.00;100009.13;7362715;19;19927;-60
2022/11/07 13:11:03;;;;;;;;;;;;;;;16.15;100.00;100016.06;7360325;19;20264;-61
2022/11/07 13:13:39;;;;;;;;;;;;;;;16.12;100.00;100017.28;7359964;19;19960;-59
2022/11/07 13:16:23;;;;;;;;;;;;;;;16.11;100.00;100015.66;7361594;19;19919;-61
2022/11/07 13:18:50;;;;;;;;;;;;;;;16.12;100.00;100022.59;7362781;19;19918;-60